createdAt,value
2023-04-15T00:00:28.050Z,4.2502
2023-04-15T00:01:28.607Z,4.2691
2023-04-15T00:02:29.258Z,4.2670
2023-04-15T00:03:30.087Z,4.2714
2023-04-15T00:04:30.983Z,4.2475
2023-04-15T00:05:31.538Z,4.2377
2023-04-15T00:06:32.100Z,4.2762
2023-04-15T00:07:32.637Z,4.3083
2023-04-15T00:08:33.198Z,4.3157
2023-04-15T00:09:34.308Z,4.3179
2023-04-15T00:10:34.833Z,4.3126
2023-04-15T00:11:35.366Z,4.2894
2023-04-15T00:12:36.064Z,4.2405
2023-04-15T00:13:36.569Z,4.2042
2023-04-15T00:14:37.147Z,4.1686
2023-04-15T00:15:37.714Z,4.1248
2023-04-15T00:16:38.318Z,4.0912
2023-04-15T00:17:38.905Z,4.0451
2023-04-15T00:18:39.466Z,3.9850
2023-04-15T00:19:40.294Z,3.9469
2023-04-15T00:20:40.814Z,3.9390
2023-04-15T00:21:41.333Z,3.9667
2023-04-15T00:22:41.891Z,3.9909
2023-04-15T00:23:42.446Z,3.9929
2023-04-15T00:24:43.256Z,3.9840
2023-04-15T00:25:43.851Z,3.9429
2023-04-15T00:26:44.375Z,3.9080
2023-04-15T00:27:44.945Z,3.8923
2023-04-15T00:28:45.514Z,3.9150
2023-04-15T00:29:46.311Z,3.9259
2023-04-15T00:30:46.944Z,3.9071
2023-04-15T00:31:47.471Z,3.9068
2023-04-15T00:32:48.086Z,3.9154
2023-04-15T00:33:48.624Z,3.9196
2023-04-15T00:34:49.156Z,3.9173
2023-04-15T00:35:49.681Z,3.9142
2023-04-15T00:36:50.248Z,3.9085
2023-04-15T00:37:50.806Z,3.9024
2023-04-15T00:38:51.388Z,3.9030
2023-04-15T00:39:52.012Z,3.9166
2023-04-15T00:40:52.558Z,3.9335
2023-04-15T00:41:53.129Z,3.9568
2023-04-15T00:42:53.666Z,3.9820
2023-04-15T00:43:54.212Z,4.0004
2023-04-15T00:44:54.781Z,4.0311
2023-04-15T00:45:55.440Z,4.0550
2023-04-15T00:46:56.315Z,4.0761
2023-04-15T00:47:56.934Z,4.0941
2023-04-15T00:48:57.836Z,4.1335
2023-04-15T00:49:58.406Z,4.1817
2023-04-15T00:50:58.973Z,4.2407
2023-04-15T00:51:59.728Z,4.2943
2023-04-15T00:53:00.313Z,4.3310
2023-04-15T00:54:00.850Z,4.3645
2023-04-15T00:55:01.445Z,4.3975
2023-04-15T00:56:02.011Z,4.4206
2023-04-15T00:57:02.667Z,4.4594
2023-04-15T00:59:06.310Z,4.4960
2023-04-15T00:59:06.310Z,4.4814
2023-04-15T01:00:06.921Z,4.5162
2023-04-15T01:01:09.115Z,4.5372
2023-04-15T01:02:09.749Z,4.5901
2023-04-15T01:07:13.785Z,4.6325
2023-04-15T01:07:13.785Z,4.6670
2023-04-15T01:10:53.283Z,4.8588
2023-04-15T01:10:53.283Z,4.8404
2023-04-15T01:11:47.022Z,4.9002
2023-04-15T01:12:47.577Z,4.9221
2023-04-15T01:13:48.294Z,4.9351
2023-04-15T01:14:48.382Z,4.9522
2023-04-15T01:15:49.021Z,4.9713
2023-04-15T01:16:49.829Z,4.9801
2023-04-15T01:17:50.414Z,4.9889
2023-04-15T01:18:50.947Z,4.9820
2023-04-15T01:19:51.501Z,4.9760
2023-04-15T01:20:52.034Z,4.9918
2023-04-15T01:21:52.697Z,5.0242
2023-04-15T01:22:53.180Z,5.0420
2023-04-15T01:23:53.734Z,5.0400
2023-04-15T01:24:54.473Z,5.0361
2023-04-15T01:25:55.019Z,5.0363
2023-04-15T01:26:55.604Z,5.0471
2023-04-15T01:28:10.865Z,5.0704
2023-04-15T01:28:57.291Z,5.0978
2023-04-15T01:29:57.891Z,5.1278
2023-04-15T01:30:58.391Z,5.1604
2023-04-15T01:31:59.052Z,5.2216
2023-04-15T01:32:59.640Z,5.2816
2023-04-15T01:34:00.207Z,5.3411
2023-04-15T01:35:00.717Z,5.3984
2023-04-15T01:36:01.249Z,5.4469
2023-04-15T01:37:01.881Z,5.4880
2023-04-15T01:38:02.461Z,5.5311
2023-04-15T01:39:03.099Z,5.5605
2023-04-15T01:40:03.727Z,5.5837
2023-04-15T01:41:04.301Z,5.6003
2023-04-15T01:42:04.827Z,5.6064
2023-04-15T01:43:05.398Z,5.5994
2023-04-15T01:44:05.929Z,5.5809
2023-04-15T01:45:06.468Z,5.5630
2023-04-15T01:46:06.998Z,5.5410
2023-04-15T01:47:07.546Z,5.5199
2023-04-15T01:48:08.138Z,5.5081
2023-04-15T01:49:08.937Z,5.5053
2023-04-15T01:50:09.462Z,5.4988
2023-04-15T01:51:10.043Z,5.4924
2023-04-15T01:52:10.583Z,5.4876
2023-04-15T01:53:11.154Z,5.4828
2023-04-15T01:54:12.300Z,5.4840
2023-04-15T01:55:12.858Z,5.4781
2023-04-15T01:56:15.283Z,5.4727
2023-04-15T01:57:15.104Z,5.4674
2023-04-15T01:58:15.592Z,5.4693
2023-04-15T01:59:16.326Z,5.4600
2023-04-15T02:00:16.844Z,5.4539
2023-04-15T02:01:17.431Z,5.4508
2023-04-15T02:02:17.987Z,5.4536
2023-04-15T02:03:18.640Z,5.4600
2023-04-15T02:04:20.768Z,5.4773
2023-04-15T02:05:24.807Z,5.4854
2023-04-15T02:06:25.359Z,5.4981
2023-04-15T02:07:25.884Z,5.5067
2023-04-15T02:08:26.420Z,5.5155
2023-04-15T02:09:26.965Z,5.5294
2023-04-15T02:10:27.539Z,5.5483
2023-04-15T02:11:28.301Z,5.5630
2023-04-15T02:12:28.809Z,5.5799
2023-04-15T02:13:29.356Z,5.5872
2023-04-15T02:14:29.858Z,5.5842
2023-04-15T02:15:30.381Z,5.5848
2023-04-15T02:16:30.983Z,5.5810
2023-04-15T02:17:31.526Z,5.5727
2023-04-15T02:18:32.032Z,5.5678
2023-04-15T02:19:32.556Z,5.5802
2023-04-15T02:20:33.089Z,5.5871
2023-04-15T02:21:34.258Z,5.5977
2023-04-15T02:22:34.877Z,5.6134
2023-04-15T02:23:35.438Z,5.6198
2023-04-15T02:24:35.931Z,5.6247
2023-04-15T02:25:36.453Z,5.6391
2023-04-15T02:26:37.013Z,5.6635
2023-04-15T02:27:37.546Z,5.6869
2023-04-15T02:28:38.077Z,5.7112
2023-04-15T02:29:38.665Z,5.7297
2023-04-15T02:30:39.195Z,5.7411
2023-04-15T02:31:40.015Z,5.7453
2023-04-15T02:32:40.594Z,5.7597
2023-04-15T02:33:41.105Z,5.7667
2023-04-15T02:34:41.660Z,5.7617
2023-04-15T02:35:42.233Z,5.7577
2023-04-15T02:36:42.807Z,5.7546
2023-04-15T02:37:43.434Z,5.7554
2023-04-15T02:38:44.055Z,5.7611
2023-04-15T02:39:44.582Z,5.7698
2023-04-15T02:40:45.142Z,5.7791
2023-04-15T02:41:45.977Z,5.7870
2023-04-15T02:42:46.581Z,5.7944
2023-04-15T02:43:47.112Z,5.8025
2023-04-15T02:44:47.680Z,5.8084
2023-04-15T02:45:48.398Z,5.8078
2023-04-15T02:46:49.094Z,5.7906
2023-04-15T02:47:49.707Z,5.7815
2023-04-15T02:48:50.485Z,5.7765
2023-04-15T02:49:51.002Z,5.7588
2023-04-15T02:50:52.048Z,5.7454
2023-04-15T02:51:52.857Z,5.7496
2023-04-15T02:52:53.385Z,5.7454
2023-04-15T02:53:53.973Z,5.7247
2023-04-15T02:54:54.530Z,5.7060
2023-04-15T02:55:55.065Z,5.6856
2023-04-15T02:56:55.814Z,5.6582
2023-04-15T02:57:56.365Z,5.6400
2023-04-15T02:58:56.960Z,5.6209
2023-04-15T02:59:57.454Z,5.6053
2023-04-15T03:00:57.998Z,5.6083
2023-04-15T03:01:58.549Z,5.6134
2023-04-15T03:02:59.215Z,5.6104
2023-04-15T03:03:59.904Z,5.6078
2023-04-15T03:05:00.425Z,5.6157
2023-04-15T03:06:00.943Z,5.6272
2023-04-15T03:07:01.487Z,5.6319
2023-04-15T03:08:02.032Z,5.6448
2023-04-15T03:09:02.731Z,5.6467
2023-04-15T03:10:03.324Z,5.6533
2023-04-15T03:11:03.895Z,5.6481
2023-04-15T03:12:04.421Z,5.6503
2023-04-15T03:13:04.986Z,5.6375
2023-04-15T03:14:05.547Z,5.6185
2023-04-15T03:15:06.083Z,5.6090
2023-04-15T03:16:06.718Z,5.6070
2023-04-15T03:17:07.275Z,5.6097
2023-04-15T03:18:07.928Z,5.6071
2023-04-15T03:19:08.484Z,5.6100
2023-04-15T03:20:09.061Z,5.6092
2023-04-15T03:21:09.563Z,5.6035
2023-04-15T03:22:10.122Z,5.6115
2023-04-15T03:23:10.650Z,5.6239
2023-04-15T03:24:11.219Z,5.6359
2023-04-15T03:25:11.748Z,5.6435
2023-04-15T03:26:12.300Z,5.6328
2023-04-15T03:27:12.804Z,5.6398
2023-04-15T03:28:13.345Z,5.6445
2023-04-15T03:29:15.424Z,5.6593
2023-04-15T03:30:15.935Z,5.6752
2023-04-15T03:31:16.828Z,5.6875
2023-04-15T03:32:17.339Z,5.6974
2023-04-15T03:33:17.890Z,5.7001
2023-04-15T03:34:18.442Z,5.6964
2023-04-15T03:35:19.012Z,5.6890
2023-04-15T03:36:19.541Z,5.6934
2023-04-15T03:37:20.054Z,5.6755
2023-04-15T03:38:20.621Z,5.6582
2023-04-15T03:39:21.174Z,5.6631
2023-04-15T03:40:21.706Z,5.6630
2023-04-15T03:41:22.500Z,5.6675
2023-04-15T03:42:23.003Z,5.6809
2023-04-15T03:43:23.574Z,5.6987
2023-04-15T03:44:24.129Z,5.7097
2023-04-15T03:45:24.690Z,5.7210
2023-04-15T03:46:25.487Z,5.7269
2023-04-15T03:47:25.991Z,5.7323
2023-04-15T03:48:26.516Z,5.7220
2023-04-15T03:49:27.076Z,5.7105
2023-04-15T03:50:27.593Z,5.7117
2023-04-15T03:51:28.135Z,5.7243
2023-04-15T03:52:28.697Z,5.7446
2023-04-15T03:53:29.288Z,5.7479
2023-04-15T03:54:29.833Z,5.7403
2023-04-15T03:55:30.361Z,5.7353
2023-04-15T03:56:31.126Z,5.7302
2023-04-15T03:57:31.692Z,5.7255
2023-04-15T03:58:32.282Z,5.7325
2023-04-15T03:59:32.850Z,5.7301
2023-04-15T04:00:33.401Z,5.7252
2023-04-15T04:01:34.021Z,5.7179
2023-04-15T04:02:34.612Z,5.7173
2023-04-15T04:03:35.357Z,5.7133
2023-04-15T04:04:36.056Z,5.7098
2023-04-15T04:05:36.572Z,5.7195
2023-04-15T04:06:37.109Z,5.7221
2023-04-15T04:07:37.652Z,5.7170
2023-04-15T04:08:38.283Z,5.7073
2023-04-15T04:09:38.809Z,5.6972
2023-04-15T04:10:39.402Z,5.6947
2023-04-15T04:11:40.262Z,5.6895
2023-04-15T04:12:40.769Z,5.6931
2023-04-15T04:13:41.394Z,5.6878
2023-04-15T04:14:41.934Z,5.6864
2023-04-15T04:15:42.480Z,5.6945
2023-04-15T04:16:44.886Z,5.6973
2023-04-15T04:17:45.406Z,5.6956
2023-04-15T04:18:45.984Z,5.7077
2023-04-15T04:19:46.554Z,5.7204
2023-04-15T04:20:47.102Z,5.7323
2023-04-15T04:21:47.872Z,5.7378
2023-04-15T04:22:48.427Z,5.7280
2023-04-15T04:23:49.017Z,5.7180
2023-04-15T04:24:49.538Z,5.7138
2023-04-15T04:25:50.076Z,5.7169
2023-04-15T04:26:50.609Z,5.7089
2023-04-15T04:27:51.172Z,5.6974
2023-04-15T04:28:51.918Z,5.6857
2023-04-15T04:29:52.478Z,5.6683
2023-04-15T04:30:52.997Z,5.6627
2023-04-15T04:31:53.630Z,5.6650
2023-04-15T04:32:54.191Z,5.6542
2023-04-15T04:33:54.718Z,5.6584
2023-04-15T04:34:55.246Z,5.6591
2023-04-15T04:35:55.778Z,5.6653
2023-04-15T04:36:56.353Z,5.6514
2023-04-15T04:37:56.907Z,5.6481
2023-04-15T04:38:57.441Z,5.6622
2023-04-15T04:39:57.957Z,5.6677
2023-04-15T04:40:58.463Z,5.6817
2023-04-15T04:41:59.244Z,5.6903
2023-04-15T04:42:59.807Z,5.7034
2023-04-15T04:44:00.353Z,5.7098
2023-04-15T04:45:00.892Z,5.7130
2023-04-15T04:46:01.481Z,5.7113
2023-04-15T04:47:02.072Z,5.7123
2023-04-15T04:48:02.759Z,5.7127
2023-04-15T04:49:03.770Z,5.7142
2023-04-15T04:50:04.359Z,5.7054
2023-04-15T04:51:04.910Z,5.6997
2023-04-15T04:52:05.444Z,5.6992
2023-04-15T04:53:05.974Z,5.6983
2023-04-15T04:54:06.787Z,5.6816
2023-04-15T04:55:07.337Z,5.6790
2023-04-15T04:56:07.872Z,5.6728
2023-04-15T04:57:08.423Z,5.6886
2023-04-15T04:58:09.008Z,5.7037
2023-04-15T04:59:09.557Z,5.7129
2023-04-15T05:00:10.142Z,5.7266
2023-04-15T05:01:10.781Z,5.7464
2023-04-15T05:02:11.341Z,5.7573
2023-04-15T05:03:12.148Z,5.7609
2023-04-15T05:04:13.182Z,5.7592
2023-04-15T05:05:13.768Z,5.7735
2023-04-15T05:06:14.320Z,5.7856
2023-04-15T05:07:14.898Z,5.8013
2023-04-15T05:08:15.507Z,5.8166
2023-04-15T05:09:16.378Z,5.8205
2023-04-15T05:10:16.957Z,5.8276
2023-04-15T05:11:17.467Z,5.8332
2023-04-15T05:12:17.988Z,5.8420
2023-04-15T05:13:18.545Z,5.8554
2023-04-15T05:14:19.138Z,5.8589
2023-04-15T05:15:19.679Z,5.8697
2023-04-15T05:16:20.295Z,5.8805
2023-04-15T05:17:20.903Z,5.8926
2023-04-15T05:18:21.447Z,5.9020
2023-04-15T05:19:22.012Z,5.9139
2023-04-15T05:20:22.547Z,5.9361
2023-04-15T05:21:23.079Z,5.9619
2023-04-15T05:22:23.634Z,6.0010
2023-04-15T05:23:24.517Z,6.0290
2023-04-15T05:24:25.066Z,6.0569
2023-04-15T05:25:25.584Z,6.0858
2023-04-15T05:26:26.143Z,6.1113
2023-04-15T05:27:26.725Z,6.1379
2023-04-15T05:28:27.271Z,6.1610
2023-04-15T05:29:27.817Z,6.1882
2023-04-15T05:30:28.348Z,6.2236
2023-04-15T05:31:29.209Z,6.2580
2023-04-15T05:32:29.840Z,6.2836
2023-04-15T05:33:30.416Z,6.3013
2023-04-15T05:34:31.035Z,6.3251
2023-04-15T05:35:31.603Z,6.3370
2023-04-15T05:36:32.189Z,6.3567
2023-04-15T05:37:32.764Z,6.3798
2023-04-15T05:38:33.556Z,6.4041
2023-04-15T05:39:34.163Z,6.4368
2023-04-15T05:40:34.755Z,6.4675
2023-04-15T05:41:35.336Z,6.4975
2023-04-15T05:42:35.899Z,6.5221
2023-04-15T05:43:36.521Z,6.5407
2023-04-15T05:44:37.153Z,6.5647
2023-04-15T05:45:37.729Z,6.5914
2023-04-15T05:46:38.583Z,6.6190
2023-04-15T05:47:39.259Z,6.6486
2023-04-15T05:48:39.895Z,6.6756
2023-04-15T05:49:40.492Z,6.7030
2023-04-15T05:50:41.071Z,6.7338
2023-04-15T05:51:41.733Z,6.7659
2023-04-15T05:52:42.277Z,6.7993
2023-04-15T05:53:42.851Z,6.8460
2023-04-15T05:54:43.438Z,6.8875
2023-04-15T05:55:44.040Z,6.9212
2023-04-15T05:56:44.617Z,6.9550
2023-04-15T05:57:45.227Z,6.9892
2023-04-15T05:58:46.017Z,7.0258
2023-04-15T05:59:46.562Z,7.0634
2023-04-15T06:00:47.149Z,7.1064
2023-04-15T06:01:47.981Z,7.1523
2023-04-15T06:02:48.661Z,7.1988
2023-04-15T06:03:49.445Z,7.2450
2023-04-15T06:04:50.186Z,7.2998
2023-04-15T06:05:50.688Z,7.3544
2023-04-15T06:06:51.256Z,7.4101
2023-04-15T06:07:51.823Z,7.4662
2023-04-15T06:08:52.458Z,7.5250
2023-04-15T06:09:53.040Z,7.5887
2023-04-15T06:10:53.622Z,7.6568
2023-04-15T06:11:54.310Z,7.7245
2023-04-15T06:12:54.838Z,7.8010
2023-04-15T06:13:55.414Z,7.8856
2023-04-15T06:14:56.022Z,7.9842
2023-04-15T06:15:56.605Z,8.0835
2023-04-15T06:16:57.247Z,8.1915
2023-04-15T06:17:57.830Z,8.2919
2023-04-15T06:18:58.436Z,8.3786
2023-04-15T06:19:59.016Z,8.4572
2023-04-15T06:20:59.622Z,8.5301
2023-04-15T06:22:00.228Z,8.5991
2023-04-15T06:23:00.823Z,8.6586
2023-04-15T06:24:01.473Z,8.7197
2023-04-15T06:25:02.116Z,8.7876
2023-04-15T06:26:02.712Z,8.8486
2023-04-15T06:27:03.312Z,8.9064
2023-04-15T06:28:03.898Z,8.9704
2023-04-15T06:29:04.483Z,9.0360
2023-04-15T06:30:05.088Z,9.1148
2023-04-15T06:31:07.269Z,9.2003
2023-04-15T06:32:07.827Z,9.2934
2023-04-15T06:33:08.467Z,9.3857
2023-04-15T06:34:09.105Z,9.4879
2023-04-15T06:35:09.698Z,9.5913
2023-04-15T06:36:10.355Z,9.6917
2023-04-15T06:37:10.904Z,9.7802
2023-04-15T06:38:11.503Z,9.8464
2023-04-15T06:39:12.079Z,9.9018
2023-04-15T06:40:12.675Z,9.9463
2023-04-15T06:41:13.256Z,9.9743
2023-04-15T06:42:13.848Z,9.9904
2023-04-15T06:43:14.477Z,10.0157
2023-04-15T06:44:15.080Z,10.0378
2023-04-15T06:45:15.701Z,10.0638
2023-04-15T06:46:16.368Z,10.0974
2023-04-15T06:47:17.017Z,10.1319
2023-04-15T06:48:17.629Z,10.1773
2023-04-15T06:49:18.237Z,10.2236
2023-04-15T06:50:18.866Z,10.2774
2023-04-15T06:51:19.457Z,10.3363
2023-04-15T06:52:20.074Z,10.3850
2023-04-15T06:53:20.624Z,10.4109
2023-04-15T06:54:21.234Z,10.4353
2023-04-15T06:55:21.828Z,10.4644
2023-04-15T06:56:22.408Z,10.4994
2023-04-15T06:57:23.017Z,10.5311
2023-04-15T06:58:23.571Z,10.5522
2023-04-15T06:59:24.145Z,10.5608
2023-04-15T07:00:24.779Z,10.5673
2023-04-15T07:01:25.390Z,10.5782
2023-04-15T07:02:26.127Z,10.5865
2023-04-15T07:03:26.731Z,10.5915
2023-04-15T07:04:27.335Z,10.6052
2023-04-15T07:05:27.985Z,10.6303
2023-04-15T07:06:28.625Z,10.6528
2023-04-15T07:07:29.191Z,10.6747
2023-04-15T07:08:30.025Z,10.7017
2023-04-15T07:09:30.595Z,10.7344
2023-04-15T07:10:31.190Z,10.7737
2023-04-15T07:11:31.789Z,10.8180
2023-04-15T07:12:32.365Z,10.8680
2023-04-15T07:13:32.936Z,10.9140
2023-04-15T07:14:33.520Z,10.9595
2023-04-15T07:15:34.123Z,11.0236
2023-04-15T07:16:34.770Z,11.0924
2023-04-15T07:17:35.411Z,11.1605
2023-04-15T07:18:35.993Z,11.2181
2023-04-15T07:19:36.590Z,11.2671
2023-04-15T07:20:37.232Z,11.2986
2023-04-15T07:21:38.928Z,11.3280
2023-04-15T07:22:40.522Z,11.3704
2023-04-15T07:23:41.347Z,11.4266
2023-04-15T07:24:41.922Z,11.4818
2023-04-15T07:25:42.541Z,11.5258
2023-04-15T07:26:43.105Z,11.5668
2023-04-15T07:27:43.691Z,11.6159
2023-04-15T07:28:44.307Z,11.6648
2023-04-15T07:29:44.902Z,11.7035
2023-04-15T07:30:45.499Z,11.7447
2023-04-15T07:31:46.119Z,11.7656
2023-04-15T07:32:46.758Z,11.7756
2023-04-15T07:33:47.303Z,11.7935
2023-04-15T07:34:47.908Z,11.8149
2023-04-15T07:35:48.530Z,11.8341
2023-04-15T07:36:49.116Z,11.8275
2023-04-15T07:37:49.912Z,11.8129
2023-04-15T07:38:50.495Z,11.8053
2023-04-15T07:39:51.124Z,11.8029
2023-04-15T07:40:51.865Z,11.7857
2023-04-15T07:41:52.438Z,11.7000
2023-04-15T07:42:53.009Z,11.5895
2023-04-15T07:43:53.685Z,11.4451
2023-04-15T07:44:54.259Z,11.2829
2023-04-15T07:45:55.114Z,11.1872
2023-04-15T07:46:55.659Z,11.1415
2023-04-15T07:47:56.381Z,11.1466
2023-04-15T07:48:56.986Z,11.1579
2023-04-15T07:49:57.616Z,11.1722
2023-04-15T07:50:58.226Z,11.1860
2023-04-15T07:51:58.826Z,11.1697
2023-04-15T07:52:59.665Z,11.1142
2023-04-15T07:54:00.241Z,11.0559
2023-04-15T07:55:00.874Z,11.0521
2023-04-15T07:56:01.733Z,11.0701
2023-04-15T07:57:02.330Z,11.0834
2023-04-15T07:58:03.041Z,11.0989
2023-04-15T07:59:03.805Z,11.1288
2023-04-15T08:00:04.566Z,11.1706
2023-04-15T08:01:05.171Z,11.2167
2023-04-15T08:02:05.932Z,11.2512
2023-04-15T08:03:06.573Z,11.2801
2023-04-15T08:04:07.377Z,11.3107
2023-04-15T08:05:07.982Z,11.2945
2023-04-15T08:06:08.577Z,11.2683
2023-04-15T08:07:09.157Z,11.1875
2023-04-15T08:08:09.751Z,11.1759
2023-04-15T08:09:10.357Z,11.1871
2023-04-15T08:10:11.112Z,11.2223
2023-04-15T08:11:11.921Z,11.2647
2023-04-15T08:12:12.505Z,11.3106
2023-04-15T08:13:13.106Z,11.3763
2023-04-15T08:14:13.689Z,11.4565
2023-04-15T08:15:14.296Z,11.5441
2023-04-15T08:16:14.866Z,11.6409
2023-04-15T08:17:15.627Z,11.7546
2023-04-15T08:18:16.277Z,11.8784
2023-04-15T08:19:16.872Z,11.9960
2023-04-15T08:20:17.503Z,12.1056
2023-04-15T08:21:18.165Z,12.1836
2023-04-15T08:22:20.105Z,12.2251
2023-04-15T08:23:22.175Z,12.2613
2023-04-15T08:24:22.818Z,12.3067
2023-04-15T08:25:23.430Z,12.3661
2023-04-15T08:26:24.022Z,12.4333
2023-04-15T08:27:24.608Z,12.5126
2023-04-15T08:28:25.199Z,12.5855
2023-04-15T08:29:25.838Z,12.6528
2023-04-15T08:30:26.666Z,12.7306
2023-04-15T08:31:27.403Z,12.8249
2023-04-15T08:32:27.985Z,12.9239
2023-04-15T08:33:28.904Z,13.0174
2023-04-15T08:34:29.484Z,13.1020
2023-04-15T08:35:30.158Z,13.1830
2023-04-15T08:36:30.759Z,13.2692
2023-04-15T08:37:31.551Z,13.3609
2023-04-15T08:38:32.167Z,13.4145
2023-04-15T08:39:32.835Z,13.4406
2023-04-15T08:40:33.689Z,13.4572
2023-04-15T08:41:34.275Z,13.4682
2023-04-15T08:42:34.901Z,13.4717
2023-04-15T08:43:35.526Z,13.4648
2023-04-15T08:44:36.102Z,13.4504
2023-04-15T08:45:36.692Z,13.4299
2023-04-15T08:46:37.371Z,13.4145
2023-04-15T08:47:38.204Z,13.4155
2023-04-15T08:48:38.817Z,13.4357
2023-04-15T08:49:39.481Z,13.4695
2023-04-15T08:50:40.124Z,13.5090
2023-04-15T08:51:40.731Z,13.5496
2023-04-15T08:52:41.555Z,13.5894
2023-04-15T08:53:42.179Z,13.6269
2023-04-15T08:54:42.779Z,13.6606
2023-04-15T08:55:43.567Z,13.7015
2023-04-15T08:56:44.379Z,13.7555
2023-04-15T08:57:44.953Z,13.8041
2023-04-15T08:58:45.508Z,13.8404
2023-04-15T08:59:46.086Z,13.8773
2023-04-15T09:00:46.760Z,13.9159
2023-04-15T09:01:47.445Z,13.9668
2023-04-15T09:02:48.152Z,14.0164
2023-04-15T09:03:48.852Z,14.0519
2023-04-15T09:04:49.537Z,14.0809
2023-04-15T09:05:51.461Z,14.0925
2023-04-15T09:06:50.227Z,14.0802
2023-04-15T09:07:50.858Z,14.0622
2023-04-15T09:08:51.385Z,14.0390
2023-04-15T09:09:51.949Z,14.0067
2023-04-15T09:10:52.559Z,13.9572
2023-04-15T09:11:53.158Z,13.9033
2023-04-15T09:12:53.769Z,13.8407
2023-04-15T09:13:54.357Z,13.7874
2023-04-15T09:14:54.932Z,13.7497
2023-04-15T09:15:55.497Z,13.7236
2023-04-15T09:16:56.106Z,13.6942
2023-04-15T09:17:56.715Z,13.6744
2023-04-15T09:18:57.326Z,13.6614
2023-04-15T09:19:57.908Z,13.6478
2023-04-15T09:20:58.490Z,13.6464
2023-04-15T09:21:59.414Z,13.6342
2023-04-15T09:23:00.440Z,13.6219
2023-04-15T09:24:01.403Z,13.6400
2023-04-15T09:25:02.437Z,13.7012
2023-04-15T09:26:03.052Z,13.7696
2023-04-15T09:27:03.680Z,13.8546
2023-04-15T09:28:04.494Z,13.9585
2023-04-15T09:29:05.101Z,14.0664
2023-04-15T09:30:05.668Z,14.1830
2023-04-15T09:31:06.283Z,14.2929
2023-04-15T09:32:06.869Z,14.3676
2023-04-15T09:33:07.511Z,14.4448
2023-04-15T09:34:08.056Z,14.5267
2023-04-15T09:35:08.893Z,14.6159
2023-04-15T09:36:09.587Z,14.6764
2023-04-15T09:37:10.543Z,14.7153
2023-04-15T09:38:11.113Z,14.7660
2023-04-15T09:39:11.680Z,14.8094
2023-04-15T09:40:12.269Z,14.8303
2023-04-15T09:41:12.842Z,14.8213
2023-04-15T09:42:13.427Z,14.8063
2023-04-15T09:43:14.032Z,14.8028
2023-04-15T09:44:14.582Z,14.8073
2023-04-15T09:45:15.200Z,14.8079
2023-04-15T09:46:15.793Z,14.8054
2023-04-15T09:47:16.672Z,14.7942
2023-04-15T09:48:17.299Z,14.7666
2023-04-15T09:49:17.973Z,14.7480
2023-04-15T09:50:18.551Z,14.7397
2023-04-15T09:51:19.213Z,14.7206
2023-04-15T09:52:19.794Z,14.7223
2023-04-15T09:53:20.387Z,14.7424
2023-04-15T09:54:20.974Z,14.7700
2023-04-15T09:55:21.552Z,14.7906
2023-04-15T09:56:22.138Z,14.7973
2023-04-15T09:57:22.693Z,14.7562
2023-04-15T09:58:23.278Z,14.7070
2023-04-15T09:59:23.844Z,14.6915
2023-04-15T10:00:24.985Z,14.6819
2023-04-15T10:01:25.565Z,14.6870
2023-04-15T10:02:26.287Z,14.6913
2023-04-15T10:03:27.000Z,14.6955
2023-04-15T10:04:27.958Z,14.7179
2023-04-15T10:05:29.775Z,14.7451
2023-04-15T10:06:30.777Z,14.7582
2023-04-15T10:07:31.349Z,14.7416
2023-04-15T10:08:31.958Z,14.6837
2023-04-15T10:09:32.553Z,14.6115
2023-04-15T10:10:33.133Z,14.5382
2023-04-15T10:11:33.692Z,14.4680
2023-04-15T10:12:34.315Z,14.3855
2023-04-15T10:13:34.877Z,14.2967
2023-04-15T10:14:35.506Z,14.2048
2023-04-15T10:15:36.090Z,14.1097
2023-04-15T10:16:36.634Z,14.0076
2023-04-15T10:17:37.461Z,13.9431
2023-04-15T10:18:38.150Z,13.9088
2023-04-15T10:19:38.771Z,13.8928
2023-04-15T10:20:39.365Z,13.8672
2023-04-15T10:21:39.949Z,13.8096
2023-04-15T10:22:40.757Z,13.7667
2023-04-15T10:23:41.280Z,13.7292
2023-04-15T10:25:44.935Z,13.6853
2023-04-15T10:25:44.935Z,13.7212
2023-04-15T10:26:45.556Z,13.6595
2023-04-15T10:27:46.122Z,13.6204
2023-04-15T10:28:46.710Z,13.6144
2023-04-15T10:29:47.299Z,13.6164
2023-04-15T10:30:47.880Z,13.6180
2023-04-15T10:31:48.576Z,13.5603
2023-04-15T10:32:49.169Z,13.5021
2023-04-15T10:33:49.733Z,13.4495
2023-04-15T10:34:51.071Z,13.4553
2023-04-15T10:35:52.414Z,13.4805
2023-04-15T10:36:52.978Z,13.4965
2023-04-15T10:37:53.552Z,13.5053
2023-04-15T10:38:54.132Z,13.4561
2023-04-15T10:39:54.910Z,13.3645
2023-04-15T10:40:55.514Z,13.2727
2023-04-15T10:41:56.167Z,13.2502
2023-04-15T10:42:56.725Z,13.2557
2023-04-15T10:43:57.295Z,13.2964
2023-04-15T10:44:57.868Z,13.3826
2023-04-15T10:45:58.445Z,13.4322
2023-04-15T10:46:59.277Z,13.4867
2023-04-15T10:48:01.596Z,13.5635
2023-04-15T10:49:00.359Z,13.6379
2023-04-15T10:50:00.985Z,13.6816
2023-04-15T10:51:01.591Z,13.7231
2023-04-15T10:52:02.167Z,13.7442
2023-04-15T10:53:02.726Z,13.7226
2023-04-15T10:54:03.536Z,13.7155
2023-04-15T10:55:04.114Z,13.6622
2023-04-15T10:56:04.682Z,13.5822
2023-04-15T10:57:05.250Z,13.5052
2023-04-15T10:58:05.866Z,13.5079
2023-04-15T10:59:06.431Z,13.5459
2023-04-15T11:00:07.001Z,13.6087
2023-04-15T11:01:07.616Z,13.6801
2023-04-15T11:02:08.479Z,13.7603
2023-04-15T11:03:09.518Z,13.8273
2023-04-15T11:04:10.543Z,13.8751
2023-04-15T11:05:11.097Z,13.8484
2023-04-15T11:06:11.669Z,13.7345
2023-04-15T11:07:12.257Z,13.6810
2023-04-15T11:08:12.868Z,13.6677
2023-04-15T11:09:13.690Z,13.6239
2023-04-15T11:10:14.279Z,13.6224
2023-04-15T11:11:14.831Z,13.6583
2023-04-15T11:12:15.445Z,13.7168
2023-04-15T11:13:16.062Z,13.7874
2023-04-15T11:14:16.632Z,13.8134
2023-04-15T11:15:17.199Z,13.8077
2023-04-15T11:16:17.820Z,13.8373
2023-04-15T11:17:18.698Z,13.8832
2023-04-15T11:18:19.297Z,13.9281
2023-04-15T11:19:19.908Z,13.9619
2023-04-15T11:20:20.499Z,13.9171
2023-04-15T11:21:21.088Z,13.8650
2023-04-15T11:22:21.666Z,13.7984
2023-04-15T11:23:22.534Z,13.7291
2023-04-15T11:24:23.318Z,13.6713
2023-04-15T11:25:24.043Z,13.6206
2023-04-15T11:26:24.697Z,13.5514
2023-04-15T11:27:25.293Z,13.4369
2023-04-15T11:28:25.856Z,13.2984
2023-04-15T11:29:26.465Z,13.1935
2023-04-15T11:30:27.080Z,13.0787
2023-04-15T11:31:27.701Z,12.9801
2023-04-15T11:32:28.282Z,12.9043
2023-04-15T11:33:28.911Z,12.8359
2023-04-15T11:34:29.493Z,12.7250
2023-04-15T11:35:30.084Z,12.6149
2023-04-15T11:36:30.645Z,12.5419
2023-04-15T11:37:31.252Z,12.4807
2023-04-15T11:38:31.834Z,12.3589
2023-04-15T11:39:32.429Z,12.2787
2023-04-15T11:40:32.980Z,12.1943
2023-04-15T11:41:33.579Z,12.1863
2023-04-15T11:42:48.741Z,12.1796
2023-04-15T11:43:37.148Z,12.1081
2023-04-15T11:44:37.735Z,12.0429
2023-04-15T11:45:38.340Z,11.9505
2023-04-15T11:46:38.912Z,11.8831
2023-04-15T11:47:39.509Z,11.8553
2023-04-15T11:48:40.113Z,11.8569
2023-04-15T11:49:40.953Z,11.8631
2023-04-15T11:50:41.559Z,11.8524
2023-04-15T11:51:42.099Z,11.8601
2023-04-15T11:52:42.656Z,11.8503
2023-04-15T11:53:43.281Z,11.7855
2023-04-15T11:54:43.873Z,11.8255
2023-04-15T11:55:44.683Z,11.9291
2023-04-15T11:56:45.244Z,12.0719
2023-04-15T11:57:45.839Z,12.2351
2023-04-15T11:58:46.572Z,12.4137
2023-04-15T11:59:47.220Z,12.5634
2023-04-15T12:00:47.878Z,12.7062
2023-04-15T12:01:48.711Z,12.8197
2023-04-15T12:02:49.360Z,12.8327
2023-04-15T12:03:50.545Z,12.8203
2023-04-15T12:04:51.360Z,12.9236
2023-04-15T12:05:51.976Z,13.0837
2023-04-15T12:06:52.585Z,13.2594
2023-04-15T12:07:53.210Z,13.4247
2023-04-15T12:08:53.816Z,13.6881
2023-04-15T12:09:54.443Z,14.0274
2023-04-15T12:10:55.070Z,14.3860
2023-04-15T12:11:55.664Z,14.6995
2023-04-15T12:12:56.284Z,14.9599
2023-04-15T12:13:56.885Z,15.0453
2023-04-15T12:14:57.541Z,15.0542
2023-04-15T12:15:58.186Z,15.0443
2023-04-15T12:16:58.813Z,15.0218
2023-04-15T12:17:59.743Z,15.1001
2023-04-15T12:19:02.342Z,15.2303
2023-04-15T12:20:02.993Z,15.3268
2023-04-15T12:21:03.587Z,15.3865
2023-04-15T12:22:04.212Z,15.4103
2023-04-15T12:23:04.807Z,15.5807
2023-04-15T12:24:05.687Z,15.7808
2023-04-15T12:25:06.438Z,15.9951
2023-04-15T12:26:07.055Z,16.2142
2023-04-15T12:27:07.826Z,16.3531
2023-04-15T12:28:08.439Z,16.3833
2023-04-15T12:29:09.074Z,16.3613
2023-04-15T12:30:09.691Z,16.2877